Time;durP1;ratioP1;P1;durP2;ratioP2;P2;SDS_P1;SDS_P2;PMS_P1;PMS_P2;Temp;Humidity;BMP_temperature;BMP_pressure;BME280_temperature;BME280_humidity;BME280_pressure;Samples;Min_cycle;Max_cycle;Signal;HPM_P1;HPM_P2
2022/01/04 00:02:05;;;;;;;0.00;0.00;;;10.60;78.80;;;;;;4165489;28;20053;-60
2022/01/04 00:04:47;;;;;;;0.00;0.00;;;10.50;78.90;;;;;;4179428;28;20048;-60
2022/01/04 00:07:23;;;;;;;0.00;0.00;;;10.60;78.90;;;;;;4179428;28;20103;-62
2022/01/04 00:10:05;;;;;;;0.00;0.00;;;10.50;79.30;;;;;;4179580;28;20502;-60
2022/01/04 00:15:50;;;;;;;0.00;0.00;;;10.40;78.70;;;;;;4179432;28;20057;-61
2022/01/04 00:18:26;;;;;;;0.00;0.00;;;10.50;78.50;;;;;;4165440;28;20654;-60
2022/01/04 00:21:09;;;;;;;0.00;0.00;;;10.60;78.60;;;;;;4165048;28;20123;-61
2022/01/04 00:23:45;;;;;;;0.00;0.00;;;10.70;77.90;;;;;;4177991;28;20527;-61
2022/01/04 00:26:27;;;;;;;0.00;0.00;;;10.90;77.80;;;;;;4179398;28;20437;-61
2022/01/04 00:29:03;;;;;;;0.00;0.00;;;11.00;78.00;;;;;;4165196;28;20127;-61
2022/01/04 00:31:45;;;;;;;0.00;0.00;;;11.00;78.70;;;;;;4165182;28;20499;-61
2022/01/04 00:34:21;;;;;;;0.00;0.00;;;11.10;79.30;;;;;;4179237;28;20048;-61
2022/01/04 00:37:04;;;;;;;0.00;0.00;;;11.10;79.50;;;;;;4179183;28;20394;-61
2022/01/04 00:39:40;;;;;;;0.00;0.00;;;11.10;80.30;;;;;;4165032;28;20045;-61
2022/01/04 00:42:24;;;;;;;0.00;0.00;;;10.90;81.00;;;;;;4164803;28;20061;-61
2022/01/04 00:45:00;;;;;;;0.00;0.00;;;10.90;81.00;;;;;;4179092;28;20473;-61
2022/01/04 00:50:46;;;;;;;0.00;0.00;;;10.90;81.40;;;;;;4160003;28;20057;-60
2022/01/04 00:53:14;;;;;;;0.00;0.00;;;10.90;81.30;;;;;;4165083;28;20045;-61
2022/01/04 00:55:56;;;;;;;0.00;0.00;;;10.70;82.20;;;;;;4165037;28;20053;-60
2022/01/04 00:58:38;;;;;;;0.00;0.00;;;10.70;82.40;;;;;;4178714;28;20083;-59
2022/01/04 01:01:20;;;;;;;0.00;0.00;;;10.40;83.00;;;;;;4178336;28;20095;-61
2022/01/04 01:03:55;;;;;;;0.00;0.00;;;10.10;84.00;;;;;;4164686;28;20052;-61
2022/01/04 01:06:38;;;;;;;0.00;0.00;;;9.90;84.90;;;;;;4164691;28;20049;-61
2022/01/04 01:09:13;;;;;;;0.00;0.00;;;9.90;84.90;;;;;;4164577;28;20107;-59
2022/01/04 01:11:56;;;;;;;0.00;0.00;;;9.90;84.80;;;;;;4165412;28;20057;-60
2022/01/04 01:14:42;;;;;;;0.00;0.00;;;9.90;84.80;;;;;;4164615;28;20049;-59
2022/01/04 01:17:20;;;;;;;0.00;0.00;;;9.80;85.00;;;;;;4165608;28;20136;-62
2022/01/04 01:20:14;;;;;;;0.00;0.00;;;10.00;84.80;;;;;;4165604;28;20053;-61
2022/01/04 01:22:51;;;;;;;0.00;0.00;;;10.10;84.40;;;;;;4165463;28;20140;-61
2022/01/04 01:25:34;;;;;;;0.00;0.00;;;10.10;84.50;;;;;;4131901;28;20050;-61
2022/01/04 01:28:10;;;;;;;0.00;0.00;;;10.10;84.30;;;;;;4132929;28;20092;-61
2022/01/04 01:30:57;;;;;;;0.00;0.00;;;10.20;84.50;;;;;;4131626;28;20050;-61
2022/01/04 01:33:45;;;;;;;0.00;0.00;;;10.20;84.20;;;;;;4131719;28;20058;-61
2022/01/04 01:36:27;;;;;;;0.00;0.00;;;10.30;83.40;;;;;;4131782;28;20131;-62
2022/01/04 01:39:09;;;;;;;0.00;0.00;;;10.20;82.30;;;;;;4132715;28;20054;-61
2022/01/04 01:41:53;;;;;;;0.00;0.00;;;10.30;81.70;;;;;;4131494;28;20491;-61
2022/01/04 01:44:31;;;;;;;0.00;0.00;;;10.50;81.60;;;;;;4132611;28;20050;-61
2022/01/04 01:47:07;;;;;;;0.00;0.00;;;10.60;81.10;;;;;;4145124;28;20042;-61
2022/01/04 01:49:51;;;;;;;0.00;0.00;;;10.70;80.90;;;;;;4132611;28;20055;-60
2022/01/04 01:52:27;;;;;;;0.00;0.00;;;10.70;80.50;;;;;;4132270;28;20455;-61
2022/01/04 01:55:12;;;;;;;0.00;0.00;;;10.50;80.60;;;;;;4133742;28;20057;-60
2022/01/04 01:57:53;;;;;;;0.00;0.00;;;10.20;81.30;;;;;;4145181;28;20594;-61
2022/01/04 02:00:41;;;;;;;0.00;0.00;;;10.20;81.70;;;;;;4131076;28;20402;-60
2022/01/04 02:03:28;;;;;;;0.00;0.00;;;10.00;82.00;;;;;;4118436;28;20046;-61
2022/01/04 02:06:04;;;;;;;0.00;0.00;;;10.00;82.30;;;;;;4131034;28;20061;-61
2022/01/04 02:08:52;;;;;;;0.00;0.00;;;10.10;82.20;;;;;;4132076;28;20042;-62
2022/01/04 02:11:22;;;;;;;0.00;0.00;;;10.30;81.80;;;;;;4131923;28;20061;-62
2022/01/04 02:14:04;;;;;;;0.00;0.00;;;10.30;81.70;;;;;;4144668;28;20042;-62
2022/01/04 02:16:40;;;;;;;0.00;0.00;;;10.40;81.20;;;;;;4131191;28;20054;-62
2022/01/04 02:19:22;;;;;;;0.00;0.00;;;10.40;80.80;;;;;;4131112;28;20121;-62
2022/01/04 02:21:58;;;;;;;0.00;0.00;;;10.50;80.70;;;;;;4130157;28;20137;-62
2022/01/04 02:24:47;;;;;;;0.00;0.00;;;10.50;80.60;;;;;;4164460;28;20123;-61
2022/01/04 02:27:35;;;;;;;0.00;0.00;;;10.50;80.30;;;;;;4177458;28;20069;-62
2022/01/04 02:30:14;;;;;;;0.00;0.00;;;10.60;79.50;;;;;;4163423;28;20182;-64
2022/01/04 02:33:08;;;;;;;0.00;0.00;;;10.60;78.90;;;;;;4163406;28;20103;-62
2022/01/04 02:35:44;;;;;;;0.00;0.00;;;10.50;78.70;;;;;;4177227;28;20057;-61
2022/01/04 02:38:25;;;;;;;0.00;0.00;;;10.50;78.50;;;;;;4163325;28;20045;-61
2022/01/04 02:41:01;;;;;;;0.00;0.00;;;10.40;78.10;;;;;;4149469;28;20486;-61
2022/01/04 02:43:43;;;;;;;0.00;0.00;;;10.40;78.40;;;;;;4163188;28;20045;-61
2022/01/04 02:46:25;;;;;;;0.00;0.00;;;10.40;78.40;;;;;;4176964;28;20045;-60
2022/01/04 02:49:07;;;;;;;0.00;0.00;;;10.50;78.20;;;;;;4149234;28;20058;-61
2022/01/04 02:51:42;;;;;;;0.00;0.00;;;10.50;78.40;;;;;;4162931;28;20083;-61
2022/01/04 02:54:25;;;;;;;0.00;0.00;;;10.40;78.10;;;;;;4176839;28;20075;-61
2022/01/04 02:57:01;;;;;;;0.00;0.00;;;10.40;78.30;;;;;;4162884;28;20096;-61
2022/01/04 02:59:43;;;;;;;0.00;0.00;;;10.50;78.20;;;;;;4162889;28;20450;-61
2022/01/04 03:02:26;;;;;;;0.00;0.00;;;10.50;78.30;;;;;;4167563;28;20040;-60
2022/01/04 03:05:01;;;;;;;0.00;0.00;;;10.30;78.90;;;;;;4193057;28;20059;-61
2022/01/04 03:07:44;;;;;;;0.00;0.00;;;10.40;78.90;;;;;;4193363;28;20048;-61
2022/01/04 03:10:26;;;;;;;0.00;0.00;;;10.50;79.00;;;;;;4178519;28;20033;-61
2022/01/04 03:13:04;;;;;;;0.00;0.00;;;10.30;79.40;;;;;;4192380;28;20125;-60
2022/01/04 03:15:46;;;;;;;0.00;0.00;;;10.30;79.80;;;;;;4179184;28;20102;-61
2022/01/04 03:18:21;;;;;;;0.00;0.00;;;10.20;80.00;;;;;;4179246;28;20088;-61
2022/01/04 03:21:03;;;;;;;0.00;0.00;;;10.00;80.50;;;;;;4178913;28;20142;-60
2022/01/04 03:23:38;;;;;;;0.00;0.00;;;9.90;80.90;;;;;;4191526;28;20048;-60
2022/01/04 03:26:23;;;;;;;0.00;0.00;;;9.90;81.00;;;;;;4176243;28;20061;-60
2022/01/04 03:28:59;;;;;;;0.00;0.00;;;10.00;80.60;;;;;;4162688;28;20429;-60
2022/01/04 03:31:42;;;;;;;0.00;0.00;;;10.00;80.90;;;;;;4176141;28;20048;-61
2022/01/04 03:34:18;;;;;;;0.00;0.00;;;9.80;81.10;;;;;;4161883;28;20462;-60
2022/01/04 03:36:59;;;;;;;0.00;0.00;;;10.00;80.80;;;;;;4176406;28;20518;-61
2022/01/04 03:39:34;;;;;;;0.00;0.00;;;10.10;80.40;;;;;;4162323;28;20111;-60
2022/01/04 03:42:16;;;;;;;0.00;0.00;;;10.30;80.20;;;;;;4162129;28;20059;-62
2022/01/04 03:44:52;;;;;;;0.00;0.00;;;10.30;81.00;;;;;;4162394;28;20054;-60
2022/01/04 03:47:34;;;;;;;0.00;0.00;;;10.40;81.60;;;;;;4162617;28;20067;-61
2022/01/04 03:50:10;;;;;;;0.00;0.00;;;10.20;82.40;;;;;;4176155;28;20103;-60
2022/01/04 03:52:52;;;;;;;0.00;0.00;;;10.20;81.60;;;;;;4176215;28;20115;-60
2022/01/04 03:55:35;;;;;;;0.00;0.00;;;10.10;82.10;;;;;;4162328;28;20045;-60
2022/01/04 03:58:10;;;;;;;0.00;0.00;;;10.30;81.70;;;;;;4176268;28;20433;-60
2022/01/04 04:00:46;;;;;;;0.00;0.00;;;10.40;81.50;;;;;;4162078;28;20544;-60
2022/01/04 04:03:29;;;;;;;0.00;0.00;;;10.50;81.50;;;;;;4176029;28;20056;-60
2022/01/04 04:06:05;;;;;;;0.00;0.00;;;10.20;82.00;;;;;;4176013;28;20056;-60
2022/01/04 04:08:47;;;;;;;0.00;0.00;;;10.10;82.40;;;;;;4162309;28;20049;-62
2022/01/04 04:11:29;;;;;;;0.00;0.00;;;10.20;82.70;;;;;;4161896;28;20065;-63
2022/01/04 04:14:06;;;;;;;0.00;0.00;;;10.10;82.60;;;;;;4175946;28;20045;-61
2022/01/04 04:17:08;;;;;;;0.00;0.00;;;10.00;82.00;;;;;;4175893;28;20442;-60
2022/01/04 04:19:44;;;;;;;0.00;0.00;;;10.10;82.20;;;;;;4162012;28;20063;-60
2022/01/04 04:22:20;;;;;;;0.00;0.00;;;10.20;81.60;;;;;;4161802;28;20046;-61
2022/01/04 04:25:02;;;;;;;0.00;0.00;;;10.20;81.20;;;;;;4160538;28;20115;-60
2022/01/04 04:27:38;;;;;;;0.00;0.00;;;10.20;80.30;;;;;;4162221;28;20084;-60
2022/01/04 04:30:20;;;;;;;0.00;0.00;;;10.20;81.10;;;;;;4162016;28;20088;-60
2022/01/04 04:32:56;;;;;;;0.00;0.00;;;10.30;81.00;;;;;;4162166;28;20064;-61
2022/01/04 04:35:38;;;;;;;0.00;0.00;;;10.40;80.70;;;;;;4175878;28;20049;-60
2022/01/04 04:38:14;;;;;;;0.00;0.00;;;10.40;81.60;;;;;;4162123;28;20498;-61
2022/01/04 04:40:56;;;;;;;0.00;0.00;;;10.50;82.00;;;;;;4150292;28;20865;-61
2022/01/04 04:43:32;;;;;;;0.00;0.00;;;10.50;82.80;;;;;;4175951;28;20395;-60
2022/01/04 04:46:13;;;;;;;0.00;0.00;;;10.50;83.10;;;;;;4178229;28;20556;-59
2022/01/04 04:48:49;;;;;;;0.00;0.00;;;10.60;82.80;;;;;;4179007;28;20075;-61
2022/01/04 04:51:30;;;;;;;0.00;0.00;;;10.40;83.00;;;;;;4164833;28;20045;-62
2022/01/04 04:54:06;;;;;;;0.00;0.00;;;10.30;83.70;;;;;;4164911;28;20093;-60
2022/01/04 04:56:48;;;;;;;0.00;0.00;;;10.50;83.90;;;;;;4165051;28;20526;-61
2022/01/04 04:59:24;;;;;;;0.00;0.00;;;10.50;83.80;;;;;;4164867;28;20478;-60
2022/01/04 05:02:07;;;;;;;0.00;0.00;;;10.40;83.80;;;;;;4178705;28;20044;-59
2022/01/04 05:04:43;;;;;;;0.00;0.00;;;10.50;84.00;;;;;;4179098;28;20102;-60
2022/01/04 05:07:26;;;;;;;0.00;0.00;;;10.50;84.00;;;;;;4165186;28;20080;-60
2022/01/04 05:10:08;;;;;;;0.00;0.00;;;10.40;83.50;;;;;;4165553;28;20093;-60
2022/01/04 05:12:50;;;;;;;0.00;0.00;;;10.10;83.70;;;;;;4165152;28;20049;-59
2022/01/04 05:15:25;;;;;;;0.00;0.00;;;10.00;83.60;;;;;;4164965;28;20065;-61
2022/01/04 05:18:10;;;;;;;0.00;0.00;;;9.90;83.60;;;;;;4165116;28;20126;-62
2022/01/04 05:20:46;;;;;;;0.00;0.00;;;10.10;83.60;;;;;;4178796;28;20565;-59
2022/01/04 05:23:28;;;;;;;0.00;0.00;;;10.10;83.30;;;;;;4165144;28;20490;-58
2022/01/04 05:26:17;;;;;;;0.00;0.00;;;10.30;83.00;;;;;;4165212;28;20519;-58
2022/01/04 05:28:46;;;;;;;0.00;0.00;;;10.30;83.00;;;;;;4178781;28;20048;-58
2022/01/04 05:31:28;;;;;;;0.00;0.00;;;10.10;83.60;;;;;;4178537;28;20110;-58
2022/01/04 05:34:04;;;;;;;0.00;0.00;;;10.00;84.90;;;;;;4164835;28;20041;-60
2022/01/04 05:36:40;;;;;;;0.00;0.00;;;10.00;85.60;;;;;;4164926;28;20049;-60
2022/01/04 05:39:21;;;;;;;0.00;0.00;;;10.10;85.70;;;;;;4152709;28;20046;-58
2022/01/04 05:41:57;;;;;;;0.00;0.00;;;10.10;86.00;;;;;;4178273;28;20053;-58
2022/01/04 05:44:38;;;;;;;0.00;0.00;;;10.00;86.50;;;;;;4164709;28;20057;-57
2022/01/04 05:47:20;;;;;;;0.00;0.00;;;10.10;86.60;;;;;;4164673;28;20450;-61
2022/01/04 05:49:57;;;;;;;0.00;0.00;;;10.10;86.80;;;;;;4164885;28;20045;-59
2022/01/04 05:52:39;;;;;;;0.00;0.00;;;10.00;87.40;;;;;;4178085;28;20099;-61
2022/01/04 05:55:21;;;;;;;0.00;0.00;;;10.00;88.40;;;;;;4178355;28;20045;-58
2022/01/04 05:57:56;;;;;;;0.00;0.00;;;10.10;88.40;;;;;;4163844;28;20041;-60
2022/01/04 06:00:32;;;;;;;0.00;0.00;;;10.20;88.40;;;;;;4164227;28;20446;-59
2022/01/04 06:03:15;;;;;;;0.00;0.00;;;10.30;88.20;;;;;;4164254;28;20045;-60
2022/01/04 06:05:51;;;;;;;0.00;0.00;;;10.40;88.30;;;;;;4164222;28;20041;-57
2022/01/04 06:08:36;;;;;;;0.00;0.00;;;10.40;89.10;;;;;;4164200;28;20061;-58
2022/01/04 06:11:30;;;;;;;0.00;0.00;;;10.20;90.10;;;;;;4164119;28;20569;-59
2022/01/04 06:17:08;;;;;;;0.00;0.00;;;10.10;90.60;;;;;;4177960;28;20056;-61
2022/01/04 06:19:50;;;;;;;0.00;0.00;;;10.10;90.80;;;;;;4163999;28;20049;-60
2022/01/04 06:22:27;;;;;;;0.00;0.00;;;9.90;91.20;;;;;;4163924;28;20489;-61
2022/01/04 06:25:11;;;;;;;0.00;0.00;;;9.90;91.40;;;;;;4162544;28;20470;-58
2022/01/04 06:27:49;;;;;;;0.00;0.00;;;9.70;91.40;;;;;;4177703;28;20102;-59
2022/01/04 06:30:32;;;;;;;0.00;0.00;;;9.60;90.90;;;;;;4163984;28;20045;-59
2022/01/04 06:33:07;;;;;;;0.00;0.00;;;9.20;91.00;;;;;;4163688;28;20053;-61
2022/01/04 06:35:49;;;;;;;0.00;0.00;;;9.10;91.10;;;;;;4177496;28;20057;-58
2022/01/04 06:38:24;;;;;;;0.00;0.00;;;9.10;90.90;;;;;;4164111;28;20087;-61
2022/01/04 06:41:06;;;;;;;0.00;0.00;;;9.00;90.70;;;;;;4163185;28;20049;-58
2022/01/04 06:43:42;;;;;;;0.00;0.00;;;9.10;90.50;;;;;;4163811;28;20535;-60
2022/01/04 06:46:25;;;;;;;0.00;0.00;;;9.10;90.30;;;;;;4163770;28;20050;-60
2022/01/04 06:49:07;;;;;;;0.00;0.00;;;9.10;90.30;;;;;;4163858;28;20526;-58
2022/01/04 06:51:43;;;;;;;0.00;0.00;;;9.20;90.20;;;;;;4177281;28;20067;-59
2022/01/04 06:54:25;;;;;;;0.00;0.00;;;9.20;90.00;;;;;;4177209;28;20036;-59
2022/01/04 06:57:08;;;;;;;0.00;0.00;;;9.10;90.20;;;;;;4163772;28;20049;-59
2022/01/04 06:59:50;;;;;;;0.00;0.00;;;9.00;90.20;;;;;;4177105;28;20457;-60
2022/01/04 07:02:26;;;;;;;0.00;0.00;;;8.90;90.50;;;;;;4177029;28;20063;-61
2022/01/04 07:05:08;;;;;;;0.00;0.00;;;9.00;91.00;;;;;;4163166;28;20042;-60
2022/01/04 07:07:44;;;;;;;0.00;0.00;;;9.00;90.70;;;;;;4162964;28;20495;-59
2022/01/04 07:10:26;;;;;;;0.00;0.00;;;9.00;90.70;;;;;;4163459;28;20439;-58
2022/01/04 07:13:09;;;;;;;0.00;0.00;;;9.20;90.60;;;;;;4177024;28;20490;-59
2022/01/04 07:15:50;;;;;;;0.00;0.00;;;9.20;90.40;;;;;;4163191;28;20077;-58
2022/01/04 07:18:32;;;;;;;0.00;0.00;;;9.40;90.20;;;;;;4163125;28;20037;-57
2022/01/04 07:21:07;;;;;;;0.00;0.00;;;9.40;90.10;;;;;;4162756;28;20136;-57
2022/01/04 07:23:44;;;;;;;0.00;0.00;;;9.50;90.20;;;;;;4163228;28;20060;-58
2022/01/04 07:26:33;;;;;;;0.00;0.00;;;9.60;90.00;;;;;;4147148;28;20058;-59
2022/01/04 07:29:09;;;;;;;0.00;0.00;;;9.80;89.80;;;;;;4146648;28;20046;-60
2022/01/04 07:31:50;;;;;;;0.00;0.00;;;9.90;89.00;;;;;;4134931;28;20108;-60
2022/01/04 07:34:25;;;;;;;0.00;0.00;;;10.00;88.80;;;;;;4146660;28;20570;-60
2022/01/04 07:37:07;;;;;;;0.00;0.00;;;10.10;88.70;;;;;;4160323;28;20041;-60
2022/01/04 07:39:43;;;;;;;0.00;0.00;;;10.30;88.30;;;;;;4146631;28;20061;-60
2022/01/04 07:42:25;;;;;;;0.00;0.00;;;10.30;88.40;;;;;;4146472;28;20459;-60
2022/01/04 07:45:07;;;;;;;0.00;0.00;;;10.30;88.50;;;;;;4146331;28;20057;-59
2022/01/04 07:47:36;;;;;;;0.00;0.00;;;10.30;89.10;;;;;;4160129;28;20047;-60
2022/01/04 07:50:19;;;;;;;0.00;0.00;;;10.30;89.90;;;;;;4146435;28;20060;-60
2022/01/04 07:52:54;;;;;;;0.00;0.00;;;10.30;89.90;;;;;;4146282;28;20496;-60
2022/01/04 07:55:30;;;;;;;0.00;0.00;;;10.40;89.90;;;;;;4146214;28;20088;-60
2022/01/04 07:58:12;;;;;;;0.00;0.00;;;10.30;90.00;;;;;;4146743;28;20042;-60
2022/01/04 08:00:48;;;;;;;0.00;0.00;;;10.20;90.40;;;;;;4146185;28;20064;-61
2022/01/04 08:03:30;;;;;;;0.00;0.00;;;10.30;90.30;;;;;;4146633;28;20056;-60
2022/01/04 08:06:12;;;;;;;0.00;0.00;;;10.30;90.60;;;;;;4146628;28;20061;-61
2022/01/04 08:08:54;;;;;;;0.00;0.00;;;10.40;90.30;;;;;;4146495;28;20050;-61
2022/01/04 08:11:30;;;;;;;0.00;0.00;;;10.40;90.10;;;;;;4145993;28;20046;-61
2022/01/04 08:14:13;;;;;;;0.00;0.00;;;10.50;90.10;;;;;;4146579;28;20503;-60
2022/01/04 08:16:49;;;;;;;0.00;0.00;;;10.50;90.00;;;;;;4146243;28;20057;-61
2022/01/04 08:19:31;;;;;;;0.00;0.00;;;10.60;90.00;;;;;;4146229;28;20050;-60
2022/01/04 08:22:07;;;;;;;0.00;0.00;;;10.70;90.00;;;;;;4149306;28;20066;-60
2022/01/04 08:24:49;;;;;;;0.00;0.00;;;10.60;89.80;;;;;;4154354;28;20132;-60
2022/01/04 08:27:31;;;;;;;0.00;0.00;;;10.60;90.00;;;;;;4175843;28;20048;-62
2022/01/04 08:30:16;;;;;;;0.00;0.00;;;10.60;90.10;;;;;;4165368;28;20100;-61
2022/01/04 08:32:54;;;;;;;0.00;0.00;;;10.60;90.00;;;;;;4179698;28;20103;-61
2022/01/04 08:35:38;;;;;;;0.00;0.00;;;10.70;89.80;;;;;;4179609;28;20053;-60
2022/01/04 08:38:14;;;;;;;0.00;0.00;;;10.70;89.80;;;;;;4165495;28;20140;-61
2022/01/04 08:40:56;;;;;;;0.00;0.00;;;10.80;89.50;;;;;;4178917;28;20060;-58
2022/01/04 08:43:32;;;;;;;0.00;0.00;;;11.00;88.70;;;;;;4165504;28;20050;-62
2022/01/04 08:46:15;;;;;;;0.00;0.00;;;11.00;87.80;;;;;;4165232;28;20103;-60
2022/01/04 08:48:50;;;;;;;0.00;0.00;;;11.00;87.30;;;;;;4179385;28;20063;-62
2022/01/04 08:51:32;;;;;;;0.00;0.00;;;11.10;87.40;;;;;;4178876;28;20052;-62
2022/01/04 08:54:14;;;;;;;0.00;0.00;;;10.90;87.10;;;;;;4179318;28;20049;-61
2022/01/04 08:56:49;;;;;;;0.00;0.00;;;10.80;87.70;;;;;;4179049;28;20063;-61
2022/01/04 08:59:26;;;;;;;0.00;0.00;;;11.10;87.90;;;;;;4165056;28;20108;-61
2022/01/04 09:02:09;;;;;;;0.00;0.00;;;11.30;87.40;;;;;;4188953;28;20071;-60
2022/01/04 09:04:44;;;;;;;0.00;0.00;;;11.50;87.10;;;;;;4181563;28;20060;-60
2022/01/04 09:07:26;;;;;;;0.00;0.00;;;11.70;86.40;;;;;;4181521;28;20092;-62
2022/01/04 09:10:03;;;;;;;0.00;0.00;;;11.70;86.10;;;;;;4181503;28;20052;-61
2022/01/04 09:13:09;;;;;;;0.00;0.00;;;11.70;85.80;;;;;;4195395;28;20102;-61
2022/01/04 09:18:43;;;;;;;0.00;0.00;;;11.60;85.60;;;;;;4194080;28;20048;-62
2022/01/04 09:18:50;;;;;;;0.00;0.00;;;11.40;86.10;;;;;;4195198;28;20131;-61
2022/01/04 09:21:28;;;;;;;0.00;0.00;;;11.30;86.10;;;;;;4181826;28;20086;-59
2022/01/04 09:24:11;;;;;;;0.00;0.00;;;11.30;85.50;;;;;;4178693;28;20045;-59
2022/01/04 09:26:53;;;;;;;0.00;0.00;;;11.30;86.20;;;;;;4162229;28;20140;-61
2022/01/04 09:29:35;;;;;;;0.00;0.00;;;11.60;86.40;;;;;;4162103;28;20110;-58
2022/01/04 09:32:16;;;;;;;0.00;0.00;;;11.90;85.60;;;;;;4160644;28;20046;-60
2022/01/04 09:35:00;;;;;;;0.00;0.00;;;12.10;84.70;;;;;;4164599;28;20053;-62
2022/01/04 09:37:42;;;;;;;0.00;0.00;;;12.60;83.90;;;;;;4164630;28;20053;-58
2022/01/04 09:40:18;;;;;;;0.00;0.00;;;13.20;82.90;;;;;;4164531;28;20051;-59
2022/01/04 09:43:03;;;;;;;0.00;0.00;;;13.60;80.70;;;;;;4164422;28;20049;-62
2022/01/04 09:45:38;;;;;;;0.00;0.00;;;13.80;79.20;;;;;;4164554;28;20108;-60
2022/01/04 09:48:14;;;;;;;0.00;0.00;;;14.10;79.10;;;;;;4164304;28;20077;-62
2022/01/04 09:50:57;;;;;;;0.00;0.00;;;14.50;78.50;;;;;;4161237;28;20403;-60
2022/01/04 09:53:34;;;;;;;0.00;0.00;;;15.00;77.40;;;;;;4161855;28;20573;-63
2022/01/04 09:56:16;;;;;;;0.00;0.00;;;15.40;76.70;;;;;;4161777;28;20053;-63
2022/01/04 09:58:52;;;;;;;0.00;0.00;;;15.30;75.60;;;;;;4162091;28;20527;-63
2022/01/04 10:01:50;;;;;;;0.00;0.00;;;15.00;75.80;;;;;;4147225;28;20100;-61
2022/01/04 10:04:26;;;;;;;0.00;0.00;;;15.00;75.70;;;;;;4148082;28;20104;-60
2022/01/04 10:07:10;;;;;;;0.00;0.00;;;15.20;74.90;;;;;;4161690;28;20037;-62
2022/01/04 10:09:48;;;;;;;0.00;0.00;;;15.20;74.10;;;;;;4147809;28;20145;-60
2022/01/04 10:12:33;;;;;;;0.00;0.00;;;15.10;74.20;;;;;;4161319;28;20124;-62
2022/01/04 10:15:09;;;;;;;0.00;0.00;;;15.00;73.90;;;;;;4161584;28;20099;-62
2022/01/04 10:17:57;;;;;;;0.00;0.00;;;14.90;74.10;;;;;;4160620;28;20050;-62
2022/01/04 10:20:39;;;;;;;0.00;0.00;;;14.80;73.80;;;;;;4133678;28;20050;-61
2022/01/04 10:23:13;;;;;;;0.00;0.00;;;14.80;74.60;;;;;;4147432;28;20037;-61
2022/01/04 10:26:11;;;;;;;0.00;0.00;;;14.60;74.90;;;;;;4173341;28;20110;-61
2022/01/04 10:28:43;;;;;;;0.00;0.00;;;14.40;75.60;;;;;;4164082;28;20556;-62
2022/01/04 10:31:19;;;;;;;0.00;0.00;;;14.40;74.80;;;;;;4181810;28;20052;-61
2022/01/04 10:34:01;;;;;;;0.00;0.00;;;14.30;74.40;;;;;;4193609;28;20087;-61
2022/01/04 10:36:40;;;;;;;0.00;0.00;;;14.30;75.00;;;;;;4168117;28;20049;-62
2022/01/04 10:39:22;;;;;;;0.00;0.00;;;14.70;74.80;;;;;;4166204;28;20054;-60
2022/01/04 10:42:07;;;;;;;0.00;0.00;;;14.90;74.70;;;;;;4179425;28;20060;-61
2022/01/04 10:44:49;;;;;;;0.00;0.00;;;15.20;72.80;;;;;;4193931;28;20048;-61
2022/01/04 10:47:31;;;;;;;0.00;0.00;;;15.20;72.90;;;;;;4194269;28;20052;-62
2022/01/04 10:50:14;;;;;;;0.00;0.00;;;15.30;72.40;;;;;;4179754;28;20068;-62
2022/01/04 10:52:51;;;;;;;0.00;0.00;;;15.10;72.50;;;;;;4176048;28;20041;-62
2022/01/04 10:55:39;;;;;;;0.00;0.00;;;14.90;73.70;;;;;;4190469;28;20075;-61
2022/01/04 10:58:25;;;;;;;0.00;0.00;;;15.00;73.60;;;;;;4177153;28;20049;-62
2022/01/04 11:01:09;;;;;;;0.00;0.00;;;15.00;74.20;;;;;;4176410;28;20056;-63
2022/01/04 11:03:54;;;;;;;0.00;0.00;;;15.30;74.10;;;;;;4177327;28;20045;-61
2022/01/04 11:06:42;;;;;;;0.00;0.00;;;15.90;72.80;;;;;;4176991;28;20091;-61
2022/01/04 11:09:19;;;;;;;0.00;0.00;;;16.10;72.00;;;;;;4150224;28;20064;-63
2022/01/04 11:12:01;;;;;;;0.00;0.00;;;15.90;71.60;;;;;;4176616;28;20045;-62
2022/01/04 11:14:36;;;;;;;0.00;0.00;;;15.80;71.60;;;;;;4163256;28;20454;-62
2022/01/04 11:17:19;;;;;;;0.00;0.00;;;15.80;71.00;;;;;;4176945;28;20051;-63
2022/01/04 11:20:02;;;;;;;0.00;0.00;;;15.90;71.00;;;;;;4176943;28;20049;-62
2022/01/04 11:22:45;;;;;;;0.00;0.00;;;15.60;70.70;;;;;;4176807;28;20118;-60
2022/01/04 11:25:29;;;;;;;0.00;0.00;;;15.40;71.20;;;;;;4161643;28;20206;-62
2022/01/04 11:28:13;;;;;;;0.00;0.00;;;15.40;71.80;;;;;;4176924;28;20055;-61
2022/01/04 11:31:01;;;;;;;0.00;0.00;;;15.70;71.50;;;;;;4162711;28;20061;-62
2022/01/04 11:34:01;;;;;;;0.00;0.00;;;15.60;70.90;;;;;;4176928;28;20086;-65
2022/01/04 11:36:41;;;;;;;0.00;0.00;;;15.70;70.50;;;;;;4176674;28;20084;-64
2022/01/04 11:39:32;;;;;;;0.00;0.00;;;16.10;69.60;;;;;;4150876;28;20176;-65
2022/01/04 11:42:10;;;;;;;0.00;0.00;;;16.20;69.50;;;;;;4176357;28;20067;-62
2022/01/04 11:44:52;;;;;;;0.00;0.00;;;16.20;68.70;;;;;;4162721;28;20049;-62
2022/01/04 11:47:32;;;;;;;0.00;0.00;;;15.90;69.00;;;;;;4176639;28;20047;-63
2022/01/04 11:50:24;;;;;;;0.00;0.00;;;15.50;69.90;;;;;;4176548;28;20053;-62
2022/01/04 11:53:06;;;;;;;0.00;0.00;;;15.30;70.90;;;;;;4162937;28;20034;-61
2022/01/04 11:55:55;;;;;;;0.00;0.00;;;15.50;71.30;;;;;;4175897;28;20049;-61
2022/01/04 11:58:52;;;;;;;0.00;0.00;;;15.90;71.10;;;;;;4162738;28;20096;-63
2022/01/04 12:01:34;;;;;;;0.00;0.00;;;16.00;70.60;;;;;;4180532;28;20094;-63
2022/01/04 12:04:10;;;;;;;0.00;0.00;;;16.20;70.60;;;;;;4162714;28;20045;-63
2022/01/04 12:06:53;;;;;;;0.00;0.00;;;16.30;70.40;;;;;;4176327;28;20049;-63
2022/01/04 12:09:29;;;;;;;0.00;0.00;;;16.20;70.60;;;;;;4176312;28;20048;-62
2022/01/04 12:12:12;;;;;;;0.00;0.00;;;16.10;71.00;;;;;;4176020;28;20048;-61
2022/01/04 12:14:48;;;;;;;0.00;0.00;;;16.10;71.00;;;;;;4176416;28;20048;-62
2022/01/04 12:17:34;;;;;;;0.00;0.00;;;16.00;71.10;;;;;;4148933;28;20046;-62
2022/01/04 12:20:09;;;;;;;0.00;0.00;;;16.10;70.80;;;;;;4176082;28;20053;-62
2022/01/04 12:22:51;;;;;;;0.00;0.00;;;16.10;70.70;;;;;;4176612;28;20044;-61
2022/01/04 12:25:27;;;;;;;0.00;0.00;;;16.10;70.50;;;;;;4161189;28;20049;-61
2022/01/04 12:28:25;;;;;;;0.00;0.00;;;15.90;70.20;;;;;;4183454;28;20048;-61
2022/01/04 12:31:13;;;;;;;0.00;0.00;;;15.70;70.70;;;;;;4178465;28;20045;-63
2022/01/04 12:34:01;;;;;;;0.00;0.00;;;15.40;70.70;;;;;;4192830;28;20049;-62
2022/01/04 12:36:48;;;;;;;0.00;0.00;;;15.00;71.40;;;;;;4180799;28;20048;-62
2022/01/04 12:39:33;;;;;;;0.00;0.00;;;14.60;72.70;;;;;;4179180;28;20514;-62
2022/01/04 12:42:11;;;;;;;0.00;0.00;;;14.80;73.10;;;;;;4178548;28;20530;-61
2022/01/04 12:44:59;;;;;;;0.00;0.00;;;15.10;72.60;;;;;;4178717;28;20099;-62
2022/01/04 12:47:36;;;;;;;0.00;0.00;;;15.00;73.10;;;;;;4178699;28;20083;-60
2022/01/04 12:50:18;;;;;;;0.00;0.00;;;15.10;73.50;;;;;;4178475;28;20049;-61
2022/01/04 12:52:53;;;;;;;0.00;0.00;;;15.20;73.40;;;;;;4164797;28;20157;-61
2022/01/04 12:55:35;;;;;;;0.00;0.00;;;15.40;73.30;;;;;;4162229;28;20085;-62
2022/01/04 12:58:10;;;;;;;0.00;0.00;;;15.60;72.80;;;;;;4162412;28;20076;-63
2022/01/04 13:00:52;;;;;;;0.00;0.00;;;15.80;72.70;;;;;;4181448;28;20571;-63
2022/01/04 13:03:32;;;;;;;0.00;0.00;;;15.70;72.60;;;;;;4192840;28;20407;-61
2022/01/04 13:06:15;;;;;;;0.00;0.00;;;15.80;71.90;;;;;;4165681;28;20106;-61
2022/01/04 13:08:55;;;;;;;0.00;0.00;;;15.90;71.80;;;;;;4181788;28;20122;-60
2022/01/04 13:11:58;;;;;;;0.00;0.00;;;16.00;71.70;;;;;;4181146;28;20095;-61
2022/01/04 13:14:35;;;;;;;0.00;0.00;;;16.00;72.10;;;;;;4181696;28;20056;-61
2022/01/04 13:17:19;;;;;;;0.00;0.00;;;15.90;72.20;;;;;;4181680;28;20056;-61
2022/01/04 13:19:55;;;;;;;0.00;0.00;;;15.90;72.30;;;;;;4181387;28;20087;-61
2022/01/04 13:22:37;;;;;;;0.00;0.00;;;15.90;72.50;;;;;;4194685;28;20463;-61
2022/01/04 13:25:14;;;;;;;0.00;0.00;;;16.00;72.30;;;;;;4179822;28;20116;-61
2022/01/04 13:27:57;;;;;;;0.00;0.00;;;16.00;72.00;;;;;;4181397;28;20057;-61
2022/01/04 13:30:41;;;;;;;0.00;0.00;;;15.80;72.80;;;;;;4181001;28;20049;-62
2022/01/04 13:33:24;;;;;;;0.00;0.00;;;15.90;73.00;;;;;;4181258;28;20526;-61
2022/01/04 13:36:06;;;;;;;0.00;0.00;;;15.80;72.60;;;;;;4181164;28;20140;-62
2022/01/04 13:38:50;;;;;;;0.00;0.00;;;15.70;72.40;;;;;;4181195;28;20045;-61
2022/01/04 13:41:34;;;;;;;0.00;0.00;;;15.60;72.60;;;;;;4180744;28;20041;-61
2022/01/04 13:44:16;;;;;;;0.00;0.00;;;15.60;72.60;;;;;;4195390;28;20464;-63
2022/01/04 13:46:52;;;;;;;0.00;0.00;;;15.60;72.60;;;;;;4195194;28;20049;-62
2022/01/04 13:49:35;;;;;;;0.00;0.00;;;15.50;72.70;;;;;;4167339;28;20064;-62
2022/01/04 13:52:17;;;;;;;0.00;0.00;;;15.50;72.60;;;;;;4180855;28;20048;-61
2022/01/04 13:55:04;;;;;;;0.00;0.00;;;15.40;72.70;;;;;;4180532;28;20049;-62
2022/01/04 13:57:39;;;;;;;0.00;0.00;;;15.50;72.50;;;;;;4181104;28;20135;-62
2022/01/04 14:00:41;;;;;;;0.00;0.00;;;15.60;72.60;;;;;;4194522;28;20454;-62
2022/01/04 14:03:29;;;;;;;0.00;0.00;;;15.60;72.70;;;;;;4180941;28;20140;-62
2022/01/04 14:06:35;;;;;;;0.00;0.00;;;15.40;73.40;;;;;;4180945;28;20053;-62
2022/01/04 14:09:22;;;;;;;0.00;0.00;;;15.40;73.80;;;;;;4180601;28;20041;-62